Time;durP1;ratioP1;P1;durP2;ratioP2;P2;SDS_P1;SDS_P2;PMS_P1;PMS_P2;Temp;Humidity;BMP_temperature;BMP_pressure;BME280_temperature;BME280_humidity;BME280_pressure;Samples;Min_cycle;Max_cycle;Signal;HPM_P1;HPM_P2
2022/12/16 00:01:52;;;;;;;1.50;1.40;;;-0.40;99.90;;;;;;5043206;28;20088;-75
2022/12/16 00:04:19;;;;;;;2.10;1.27;;;-0.30;99.90;;;;;;5043080;28;20132;-76
2022/12/16 00:06:44;;;;;;;1.75;1.65;;;-0.40;99.90;;;;;;5043044;28;20480;-76
2022/12/16 00:09:10;;;;;;;0.63;0.63;;;-0.40;99.90;;;;;;5041847;28;20056;-75
2022/12/16 00:11:36;;;;;;;2.13;1.92;;;-0.50;99.90;;;;;;5042607;28;20055;-76
2022/12/16 00:14:01;;;;;;;0.57;0.57;;;-0.60;99.90;;;;;;5042438;28;20049;-76
2022/12/16 00:16:27;;;;;;;0.28;0.28;;;-0.70;99.90;;;;;;5042882;28;20041;-75
2022/12/16 00:18:53;;;;;;;2.57;2.37;;;-0.80;99.90;;;;;;5042855;28;20506;-75
2022/12/16 00:21:19;;;;;;;2.07;1.47;;;-0.90;99.90;;;;;;5042855;28;20410;-75
2022/12/16 00:23:46;;;;;;;4.10;2.50;;;-1.00;99.90;;;;;;5042321;28;20055;-74
2022/12/16 00:26:12;;;;;;;0.37;0.37;;;-1.10;99.90;;;;;;5042672;28;20049;-75
2022/12/16 00:28:39;;;;;;;0.10;0.10;;;-1.20;99.90;;;;;;5042599;28;20401;-75
2022/12/16 00:31:05;;;;;;;2.70;2.50;;;-1.30;99.90;;;;;;5041413;28;20052;-75
2022/12/16 00:33:31;;;;;;;3.20;2.77;;;-1.30;99.90;;;;;;5042165;28;20099;-75
2022/12/16 00:35:57;;;;;;;1.77;1.40;;;-1.40;99.90;;;;;;5042988;28;20057;-75
2022/12/16 00:38:25;;;;;;;0.57;0.53;;;-1.50;99.90;;;;;;5043008;28;20059;-78
2022/12/16 00:40:51;;;;;;;0.90;0.90;;;-1.60;99.90;;;;;;5042990;28;20132;-77
2022/12/16 00:43:17;;;;;;;0.37;0.37;;;-1.70;99.90;;;;;;5042597;28;20128;-75
2022/12/16 00:45:44;;;;;;;5.27;1.27;;;-1.80;99.90;;;;;;5042478;28;20086;-75
2022/12/16 00:48:09;;;;;;;0.20;0.10;;;-1.90;99.90;;;;;;5042358;28;20049;-75
2022/12/16 00:50:35;;;;;;;0.68;0.68;;;-1.90;99.90;;;;;;5042195;28;20052;-75
2022/12/16 00:53:02;;;;;;;0.33;0.33;;;-1.90;99.90;;;;;;5042636;28;20191;-75
2022/12/16 00:55:28;;;;;;;0.97;0.67;;;-1.80;99.90;;;;;;5042930;28;20097;-75
2022/12/16 00:57:53;;;;;;;0.50;0.50;;;-1.70;99.90;;;;;;5042693;28;20037;-75
2022/12/16 01:00:19;;;;;;;5.40;2.67;;;-1.70;99.90;;;;;;5042686;28;20886;-75
2022/12/16 01:02:47;;;;;;;1.13;1.03;;;-1.60;99.90;;;;;;5041903;28;20520;-75
2022/12/16 01:05:15;;;;;;;2.78;1.05;;;-1.50;99.90;;;;;;5042666;28;20057;-75
2022/12/16 01:07:41;;;;;;;2.13;2.00;;;-1.40;99.90;;;;;;5042637;28;20072;-75
2022/12/16 01:10:08;;;;;;;0.35;0.35;;;-1.30;99.90;;;;;;5041506;28;20079;-75
2022/12/16 01:12:35;;;;;;;1.17;1.07;;;-1.20;99.90;;;;;;5042028;28;20071;-75
2022/12/16 01:15:02;;;;;;;1.30;1.07;;;-1.10;99.90;;;;;;5042036;28;20128;-75
2022/12/16 01:17:27;;;;;;;2.90;1.17;;;-1.10;99.90;;;;;;5042006;28;20561;-75
2022/12/16 01:19:53;;;;;;;1.03;0.87;;;-1.10;99.90;;;;;;5042071;28;20116;-75
2022/12/16 01:22:20;;;;;;;0.63;0.63;;;-1.10;99.90;;;;;;5042051;28;20044;-75
2022/12/16 01:24:46;;;;;;;6.73;2.43;;;-1.00;99.90;;;;;;5041953;28;20082;-75
2022/12/16 01:27:12;;;;;;;1.67;1.57;;;-1.00;99.90;;;;;;5042133;28;20045;-75
2022/12/16 01:29:38;;;;;;;0.30;0.27;;;-1.00;99.90;;;;;;5042068;28;20524;-75
2022/12/16 01:32:05;;;;;;;0.60;0.60;;;-1.00;99.90;;;;;;5041883;28;20055;-76
2022/12/16 01:34:31;;;;;;;1.10;0.80;;;-0.90;99.90;;;;;;5041945;28;20048;-75
2022/12/16 01:36:56;;;;;;;0.40;0.40;;;-0.90;99.90;;;;;;5041940;28;20428;-75
2022/12/16 01:39:22;;;;;;;0.97;0.93;;;-0.90;99.90;;;;;;5042852;28;20052;-75
2022/12/16 01:41:48;;;;;;;0.10;0.10;;;-0.80;99.90;;;;;;5043949;28;20056;-75
2022/12/16 01:44:19;;;;;;;0.70;0.70;;;-0.80;99.90;;;;;;5045756;28;20047;-75
2022/12/16 01:46:53;;;;;;;2.05;1.02;;;-0.70;99.90;;;;;;5045513;28;20051;-75
2022/12/16 01:49:42;;;;;;;0.40;0.38;;;-0.70;99.90;;;;;;5046285;28;20051;-75
2022/12/16 01:52:12;;;;;;;1.65;1.55;;;-0.60;99.90;;;;;;5045752;28;20048;-75
2022/12/16 01:54:42;;;;;;;0.60;0.53;;;-0.60;99.90;;;;;;5045573;28;20041;-75
2022/12/16 01:57:21;;;;;;;5.25;0.98;;;-0.40;99.90;;;;;;5045990;28;20056;-75
2022/12/16 01:59:50;;;;;;;0.10;0.10;;;-0.30;99.90;;;;;;5045850;28;20063;-75
2022/12/16 02:02:16;;;;;;;0.50;0.50;;;-0.20;99.90;;;;;;5045288;28;20057;-75
2022/12/16 02:07:27;;;;;;;2.47;1.42;;;-0.10;99.90;;;;;;5045765;28;20212;-75
2022/12/16 02:09:53;;;;;;;1.35;0.75;;;0.00;99.90;;;;;;5045630;28;20055;-75
2022/12/16 02:12:39;;;;;;;1.27;1.17;;;0.00;99.90;;;;;;5046000;28;20199;-75
2022/12/16 02:15:16;;;;;;;0.47;0.47;;;0.10;99.90;;;;;;5045582;28;20126;-75
2022/12/16 02:17:51;;;;;;;17.33;1.55;;;0.20;99.90;;;;;;5045528;28;20434;-75
2022/12/16 02:20:32;;;;;;;0.87;0.87;;;0.30;99.90;;;;;;5045696;28;20132;-75
2022/12/16 02:23:16;;;;;;;1.85;1.42;;;0.40;99.90;;;;;;5044993;28;20099;-75
2022/12/16 02:26:19;;;;;;;0.27;0.27;;;0.40;99.90;;;;;;5045603;28;20059;-75
2022/12/16 02:28:59;;;;;;;0.90;0.80;;;0.40;99.90;;;;;;5045511;28;20639;-76
2022/12/16 02:31:33;;;;;;;0.00;0.00;;;0.50;99.90;;;;;;5025391;28;20057;-76
2022/12/16 02:34:26;;;;;;;0.32;0.32;;;0.50;99.90;;;;;;5028079;28;20049;-75
2022/12/16 02:37:07;;;;;;;1.33;1.10;;;0.50;99.90;;;;;;5045487;28;20373;-76
2022/12/16 02:39:38;;;;;;;0.00;0.00;;;0.50;99.90;;;;;;5045146;28;20502;-76
2022/12/16 02:42:12;;;;;;;0.40;0.40;;;0.50;99.90;;;;;;5044883;28;20517;-76
2022/12/16 02:45:04;;;;;;;0.10;0.10;;;0.50;99.90;;;;;;5044856;28;20081;-76
2022/12/16 02:47:30;;;;;;;0.00;0.00;;;0.50;99.90;;;;;;5044489;28;20056;-76
2022/12/16 02:49:57;;;;;;;0.10;0.10;;;0.50;99.90;;;;;;5044356;28;20071;-75
2022/12/16 02:52:26;;;;;;;0.00;0.00;;;0.50;99.90;;;;;;5043920;28;20049;-76
2022/12/16 02:54:59;;;;;;;0.13;0.10;;;0.50;99.90;;;;;;5043031;28;20072;-76
2022/12/16 02:57:37;;;;;;;0.00;0.00;;;0.60;99.90;;;;;;5044418;28;20049;-76
2022/12/16 03:00:11;;;;;;;0.20;0.20;;;0.60;99.90;;;;;;5044269;28;20049;-76
2022/12/16 03:02:40;;;;;;;1.67;0.97;;;0.70;99.90;;;;;;5044151;28;20053;-76
2022/12/16 03:05:47;;;;;;;0.38;0.38;;;0.70;99.90;;;;;;5044401;28;20045;-75
2022/12/16 03:08:18;;;;;;;0.35;0.35;;;0.70;99.90;;;;;;5021656;28;20058;-76
2022/12/16 03:10:51;;;;;;;0.10;0.10;;;0.80;99.90;;;;;;5040688;28;20064;-76
2022/12/16 03:13:19;;;;;;;0.47;0.47;;;0.80;99.90;;;;;;5043212;28;20059;-76
2022/12/16 03:15:48;;;;;;;0.40;0.40;;;0.90;99.90;;;;;;5043860;28;20088;-76
2022/12/16 03:18:15;;;;;;;0.00;0.00;;;0.90;99.90;;;;;;5043602;28;20066;-76
2022/12/16 03:21:02;;;;;;;0.03;0.03;;;0.90;99.90;;;;;;5044035;28;20518;-76
2022/12/16 03:23:51;;;;;;;0.50;0.50;;;1.00;99.90;;;;;;5044137;28;20041;-76
2022/12/16 03:26:39;;;;;;;0.03;0.03;;;1.00;99.90;;;;;;5043912;28;20059;-77
2022/12/16 03:29:34;;;;;;;0.20;0.20;;;1.10;99.90;;;;;;5042779;28;20057;-76
2022/12/16 03:32:08;;;;;;;0.28;0.28;;;1.10;99.90;;;;;;5043678;28;20521;-76
2022/12/16 03:34:51;;;;;;;0.00;0.00;;;1.00;99.90;;;;;;5043596;28;20041;-76
2022/12/16 03:37:22;;;;;;;0.57;0.57;;;1.10;99.90;;;;;;5042174;28;20049;-76
2022/12/16 03:39:51;;;;;;;0.40;0.40;;;1.10;99.90;;;;;;5043955;28;20098;-76
2022/12/16 03:42:17;;;;;;;0.20;0.20;;;1.20;99.90;;;;;;5043543;28;20045;-76
2022/12/16 03:44:44;;;;;;;0.32;0.32;;;1.30;99.90;;;;;;5043955;28;20059;-76
2022/12/16 03:47:11;;;;;;;0.85;0.85;;;1.30;99.90;;;;;;5043519;28;20048;-76
2022/12/16 03:49:37;;;;;;;0.30;0.30;;;1.30;99.90;;;;;;5043676;28;20402;-77
2022/12/16 03:52:04;;;;;;;1.15;0.90;;;1.30;99.90;;;;;;5043573;28;20041;-76
2022/12/16 03:54:29;;;;;;;1.92;1.73;;;1.40;99.90;;;;;;5043812;28;21056;-76
2022/12/16 03:56:56;;;;;;;1.13;0.57;;;1.40;99.90;;;;;;5043354;28;20084;-76
2022/12/16 03:59:22;;;;;;;0.00;0.00;;;1.40;99.90;;;;;;5043110;28;20056;-76
2022/12/16 04:01:48;;;;;;;0.03;0.03;;;1.40;99.90;;;;;;5043138;28;20044;-76
2022/12/16 04:04:15;;;;;;;0.52;0.52;;;1.30;99.90;;;;;;5041755;28;20057;-77
2022/12/16 04:06:41;;;;;;;0.28;0.28;;;1.30;99.90;;;;;;5043839;28;20709;-76
2022/12/16 04:09:07;;;;;;;0.25;0.25;;;1.30;99.90;;;;;;5043149;28;20049;-76
2022/12/16 04:25:36;;;;;;;1.17;1.07;;;1.70;99.90;;;;;;5059953;28;20048;-76
2022/12/16 04:28:02;;;;;;;0.93;0.75;;;1.70;99.90;;;;;;5050248;28;20080;-76
2022/12/16 04:30:33;;;;;;;2.55;1.33;;;1.70;99.90;;;;;;5042907;28;20608;-77
